sensor_id;sensor_type;location;lat;lon;timestamp;P1;durP1;ratioP1;P2;durP2;ratioP2
48897;SDS011;34713;50.038;20.000;2023-06-10T00:00:46;13.80;;;9.40;;
48897;SDS011;34713;50.038;20.000;2023-06-10T00:04:02;11.20;;;9.60;;
48897;SDS011;34713;50.038;20.000;2023-06-10T00:06:32;14.00;;;9.40;;
48897;SDS011;34713;50.038;20.000;2023-06-10T00:09:05;10.70;;;9.10;;
48897;SDS011;34713;50.038;20.000;2023-06-10T00:12:23;12.50;;;10.10;;
48897;SDS011;34713;50.038;20.000;2023-06-10T00:14:48;12.60;;;9.10;;
48897;SDS011;34713;50.038;20.000;2023-06-10T00:17:19;10.90;;;9.40;;
48897;SDS011;34713;50.038;20.000;2023-06-10T00:19:51;11.40;;;9.40;;
48897;SDS011;34713;50.038;20.000;2023-06-10T00:22:22;12.30;;;10.70;;
48897;SDS011;34713;50.038;20.000;2023-06-10T00:25:05;13.30;;;10.50;;
48897;SDS011;34713;50.038;20.000;2023-06-10T00:27:36;11.10;;;9.90;;
48897;SDS011;34713;50.038;20.000;2023-06-10T00:30:07;12.00;;;9.30;;
48897;SDS011;34713;50.038;20.000;2023-06-10T00:32:48;13.10;;;8.90;;
48897;SDS011;34713;50.038;20.000;2023-06-10T00:35:36;12.50;;;9.20;;
48897;SDS011;34713;50.038;20.000;2023-06-10T00:38:08;12.30;;;9.70;;
48897;SDS011;34713;50.038;20.000;2023-06-10T00:40:42;11.80;;;10.10;;
48897;SDS011;34713;50.038;20.000;2023-06-10T00:43:20;13.50;;;9.60;;
48897;SDS011;34713;50.038;20.000;2023-06-10T00:48:21;12.10;;;10.20;;
48897;SDS011;34713;50.038;20.000;2023-06-10T00:50:57;12.20;;;10.30;;
48897;SDS011;34713;50.038;20.000;2023-06-10T00:53:26;13.20;;;10.50;;
48897;SDS011;34713;50.038;20.000;2023-06-10T00:56:17;11.40;;;10.30;;
48897;SDS011;34713;50.038;20.000;2023-06-10T00:58:44;12.50;;;10.80;;
48897;SDS011;34713;50.038;20.000;2023-06-10T01:01:14;14.70;;;12.00;;
48897;SDS011;34713;50.038;20.000;2023-06-10T01:03:43;13.30;;;11.90;;
48897;SDS011;34713;50.038;20.000;2023-06-10T01:08:55;13.10;;;10.40;;
48897;SDS011;34713;50.038;20.000;2023-06-10T01:11:39;12.40;;;11.20;;
48897;SDS011;34713;50.038;20.000;2023-06-10T01:14:10;11.80;;;10.60;;
48897;SDS011;34713;50.038;20.000;2023-06-10T01:16:40;13.90;;;10.60;;
48897;SDS011;34713;50.038;20.000;2023-06-10T01:19:07;13.80;;;10.80;;
48897;SDS011;34713;50.038;20.000;2023-06-10T01:21:42;14.40;;;10.70;;
48897;SDS011;34713;50.038;20.000;2023-06-10T01:24:18;13.10;;;11.00;;
48897;SDS011;34713;50.038;20.000;2023-06-10T01:26:49;13.00;;;11.20;;
48897;SDS011;34713;50.038;20.000;2023-06-10T01:29:20;14.40;;;12.30;;
48897;SDS011;34713;50.038;20.000;2023-06-10T01:32:21;12.80;;;11.00;;
48897;SDS011;34713;50.038;20.000;2023-06-10T01:34:47;15.90;;;12.50;;
48897;SDS011;34713;50.038;20.000;2023-06-10T01:37:17;13.90;;;12.60;;
48897;SDS011;34713;50.038;20.000;2023-06-10T01:39:51;12.10;;;10.80;;
48897;SDS011;34713;50.038;20.000;2023-06-10T01:42:21;15.20;;;11.90;;
48897;SDS011;34713;50.038;20.000;2023-06-10T01:45:21;13.50;;;11.70;;
48897;SDS011;34713;50.038;20.000;2023-06-10T01:47:51;14.00;;;11.10;;
48897;SDS011;34713;50.038;20.000;2023-06-10T01:50:20;13.40;;;12.10;;
48897;SDS011;34713;50.038;20.000;2023-06-10T01:52:47;16.40;;;11.80;;
48897;SDS011;34713;50.038;20.000;2023-06-10T01:55:13;22.50;;;12.50;;
48897;SDS011;34713;50.038;20.000;2023-06-10T01:57:42;14.30;;;11.50;;
48897;SDS011;34713;50.038;20.000;2023-06-10T02:00:09;13.70;;;12.10;;
48897;SDS011;34713;50.038;20.000;2023-06-10T02:02:51;14.00;;;12.00;;
48897;SDS011;34713;50.038;20.000;2023-06-10T02:05:17;13.60;;;12.10;;
48897;SDS011;34713;50.038;20.000;2023-06-10T02:07:50;14.90;;;12.00;;
48897;SDS011;34713;50.038;20.000;2023-06-10T02:10:26;13.60;;;11.90;;
48897;SDS011;34713;50.038;20.000;2023-06-10T02:12:53;12.70;;;11.30;;
48897;SDS011;34713;50.038;20.000;2023-06-10T02:15:19;15.50;;;11.00;;
48897;SDS011;34713;50.038;20.000;2023-06-10T02:18:10;14.10;;;12.10;;
48897;SDS011;34713;50.038;20.000;2023-06-10T02:20:57;13.30;;;12.00;;
48897;SDS011;34713;50.038;20.000;2023-06-10T02:23:33;14.80;;;12.10;;
48897;SDS011;34713;50.038;20.000;2023-06-10T02:26:14;13.10;;;11.50;;
48897;SDS011;34713;50.038;20.000;2023-06-10T02:28:44;14.80;;;11.60;;
48897;SDS011;34713;50.038;20.000;2023-06-10T02:37:02;12.50;;;11.30;;
48897;SDS011;34713;50.038;20.000;2023-06-10T02:39:35;15.40;;;11.30;;
48897;SDS011;34713;50.038;20.000;2023-06-10T02:42:05;14.30;;;12.00;;
48897;SDS011;34713;50.038;20.000;2023-06-10T02:44:33;14.10;;;11.10;;
48897;SDS011;34713;50.038;20.000;2023-06-10T02:47:07;15.50;;;11.90;;
48897;SDS011;34713;50.038;20.000;2023-06-10T02:49:34;14.00;;;11.90;;
48897;SDS011;34713;50.038;20.000;2023-06-10T02:52:00;17.60;;;12.30;;
48897;SDS011;34713;50.038;20.000;2023-06-10T02:54:49;14.50;;;11.50;;
48897;SDS011;34713;50.038;20.000;2023-06-10T02:57:14;14.20;;;11.30;;
48897;SDS011;34713;50.038;20.000;2023-06-10T02:59:41;13.80;;;11.40;;
48897;SDS011;34713;50.038;20.000;2023-06-10T03:02:11;13.80;;;11.80;;
48897;SDS011;34713;50.038;20.000;2023-06-10T03:04:38;13.80;;;12.20;;
48897;SDS011;34713;50.038;20.000;2023-06-10T03:07:16;14.40;;;11.50;;
48897;SDS011;34713;50.038;20.000;2023-06-10T03:09:52;14.60;;;11.20;;
48897;SDS011;34713;50.038;20.000;2023-06-10T03:12:24;12.50;;;11.30;;
48897;SDS011;34713;50.038;20.000;2023-06-10T03:17:51;15.30;;;11.60;;
48897;SDS011;34713;50.038;20.000;2023-06-10T03:20:23;14.70;;;11.60;;
48897;SDS011;34713;50.038;20.000;2023-06-10T03:23:06;15.90;;;11.90;;
48897;SDS011;34713;50.038;20.000;2023-06-10T03:25:38;13.70;;;11.50;;
48897;SDS011;34713;50.038;20.000;2023-06-10T03:28:15;15.00;;;11.70;;
48897;SDS011;34713;50.038;20.000;2023-06-10T03:30:44;15.60;;;12.20;;
48897;SDS011;34713;50.038;20.000;2023-06-10T03:33:13;16.90;;;12.30;;
48897;SDS011;34713;50.038;20.000;2023-06-10T03:35:41;17.20;;;13.20;;
48897;SDS011;34713;50.038;20.000;2023-06-10T03:38:11;15.20;;;13.00;;
48897;SDS011;34713;50.038;20.000;2023-06-10T03:43:20;16.60;;;12.90;;
48897;SDS011;34713;50.038;20.000;2023-06-10T03:45:53;16.00;;;14.30;;
48897;SDS011;34713;50.038;20.000;2023-06-10T03:48:20;16.10;;;13.50;;
48897;SDS011;34713;50.038;20.000;2023-06-10T03:50:57;21.30;;;14.90;;
48897;SDS011;34713;50.038;20.000;2023-06-10T03:53:24;17.80;;;14.10;;
48897;SDS011;34713;50.038;20.000;2023-06-10T03:55:54;19.00;;;13.80;;
48897;SDS011;34713;50.038;20.000;2023-06-10T03:58:33;15.90;;;14.30;;
48897;SDS011;34713;50.038;20.000;2023-06-10T04:01:20;20.10;;;13.50;;
48897;SDS011;34713;50.038;20.000;2023-06-10T04:03:50;14.80;;;12.60;;
48897;SDS011;34713;50.038;20.000;2023-06-10T04:06:40;15.10;;;12.90;;
48897;SDS011;34713;50.038;20.000;2023-06-10T04:12:13;14.80;;;11.50;;
48897;SDS011;34713;50.038;20.000;2023-06-10T04:15:01;15.80;;;11.10;;
48897;SDS011;34713;50.038;20.000;2023-06-10T04:17:48;16.00;;;11.40;;
48897;SDS011;34713;50.038;20.000;2023-06-10T04:20:18;19.70;;;12.20;;
48897;SDS011;34713;50.038;20.000;2023-06-10T04:22:50;16.40;;;12.10;;
48897;SDS011;34713;50.038;20.000;2023-06-10T04:25:17;16.10;;;11.30;;
48897;SDS011;34713;50.038;20.000;2023-06-10T04:27:46;14.70;;;10.90;;
48897;SDS011;34713;50.038;20.000;2023-06-10T04:30:18;16.50;;;12.10;;
48897;SDS011;34713;50.038;20.000;2023-06-10T04:32:46;18.00;;;12.00;;
48897;SDS011;34713;50.038;20.000;2023-06-10T04:35:15;17.60;;;11.90;;
48897;SDS011;34713;50.038;20.000;2023-06-10T04:37:42;17.10;;;11.50;;
48897;SDS011;34713;50.038;20.000;2023-06-10T04:40:12;16.10;;;11.70;;
48897;SDS011;34713;50.038;20.000;2023-06-10T04:42:47;18.50;;;12.70;;
48897;SDS011;34713;50.038;20.000;2023-06-10T04:45:33;15.20;;;11.70;;
48897;SDS011;34713;50.038;20.000;2023-06-10T04:48:02;15.20;;;11.50;;
48897;SDS011;34713;50.038;20.000;2023-06-10T04:50:32;15.70;;;11.80;;
48897;SDS011;34713;50.038;20.000;2023-06-10T04:56:26;17.40;;;11.20;;
48897;SDS011;34713;50.038;20.000;2023-06-10T05:02:02;16.30;;;10.30;;
48897;SDS011;34713;50.038;20.000;2023-06-10T05:04:40;13.70;;;9.80;;
48897;SDS011;34713;50.038;20.000;2023-06-10T05:07:19;12.10;;;9.10;;
48897;SDS011;34713;50.038;20.000;2023-06-10T05:09:51;12.80;;;8.30;;
48897;SDS011;34713;50.038;20.000;2023-06-10T05:12:30;10.50;;;8.60;;
48897;SDS011;34713;50.038;20.000;2023-06-10T05:15:07;12.60;;;9.10;;
48897;SDS011;34713;50.038;20.000;2023-06-10T05:17:38;14.60;;;8.70;;
48897;SDS011;34713;50.038;20.000;2023-06-10T05:20:05;13.00;;;8.80;;
48897;SDS011;34713;50.038;20.000;2023-06-10T05:22:32;14.60;;;9.80;;
48897;SDS011;34713;50.038;20.000;2023-06-10T05:25:08;15.10;;;9.40;;
48897;SDS011;34713;50.038;20.000;2023-06-10T05:27:49;16.20;;;9.20;;
48897;SDS011;34713;50.038;20.000;2023-06-10T05:30:19;14.40;;;9.90;;
48897;SDS011;34713;50.038;20.000;2023-06-10T05:33:06;12.90;;;8.90;;
48897;SDS011;34713;50.038;20.000;2023-06-10T05:41:26;9.30;;;6.30;;
48897;SDS011;34713;50.038;20.000;2023-06-10T05:43:53;11.90;;;6.00;;
48897;SDS011;34713;50.038;20.000;2023-06-10T05:46:20;9.70;;;6.60;;
48897;SDS011;34713;50.038;20.000;2023-06-10T05:48:47;9.80;;;7.40;;
48897;SDS011;34713;50.038;20.000;2023-06-10T05:51:25;7.00;;;6.10;;
48897;SDS011;34713;50.038;20.000;2023-06-10T05:54:02;10.30;;;6.80;;
48897;SDS011;34713;50.038;20.000;2023-06-10T05:56:32;9.60;;;6.00;;
48897;SDS011;34713;50.038;20.000;2023-06-10T05:59:30;12.10;;;5.80;;
48897;SDS011;34713;50.038;20.000;2023-06-10T06:02:00;8.90;;;5.70;;
48897;SDS011;34713;50.038;20.000;2023-06-10T06:04:41;9.40;;;6.20;;
48897;SDS011;34713;50.038;20.000;2023-06-10T06:09:58;8.30;;;5.20;;
48897;SDS011;34713;50.038;20.000;2023-06-10T06:12:25;8.40;;;6.20;;
48897;SDS011;34713;50.038;20.000;2023-06-10T06:14:54;6.30;;;5.00;;
48897;SDS011;34713;50.038;20.000;2023-06-10T06:17:44;7.40;;;5.90;;
48897;SDS011;34713;50.038;20.000;2023-06-10T06:20:13;10.50;;;6.30;;
48897;SDS011;34713;50.038;20.000;2023-06-10T06:22:49;10.50;;;6.20;;
48897;SDS011;34713;50.038;20.000;2023-06-10T06:25:16;10.50;;;6.20;;
48897;SDS011;34713;50.038;20.000;2023-06-10T06:27:45;8.00;;;6.30;;
48897;SDS011;34713;50.038;20.000;2023-06-10T06:30:21;7.10;;;5.70;;
48897;SDS011;34713;50.038;20.000;2023-06-10T06:33:24;8.60;;;5.70;;
48897;SDS011;34713;50.038;20.000;2023-06-10T06:39:26;9.20;;;5.50;;
48897;SDS011;34713;50.038;20.000;2023-06-10T06:42:00;10.70;;;5.60;;
48897;SDS011;34713;50.038;20.000;2023-06-10T06:44:53;7.80;;;5.40;;
48897;SDS011;34713;50.038;20.000;2023-06-10T06:48:02;8.90;;;6.30;;
48897;SDS011;34713;50.038;20.000;2023-06-10T06:54:03;8.20;;;6.10;;
48897;SDS011;34713;50.038;20.000;2023-06-10T06:56:44;9.60;;;5.80;;
48897;SDS011;34713;50.038;20.000;2023-06-10T06:59:11;9.70;;;6.20;;
48897;SDS011;34713;50.038;20.000;2023-06-10T07:01:51;13.90;;;6.50;;
48897;SDS011;34713;50.038;20.000;2023-06-10T07:07:47;5.90;;;4.70;;
48897;SDS011;34713;50.038;20.000;2023-06-10T07:20:19;5.80;;;5.20;;
48897;SDS011;34713;50.038;20.000;2023-06-10T07:22:46;5.70;;;4.70;;
48897;SDS011;34713;50.038;20.000;2023-06-10T07:25:15;7.20;;;4.90;;
48897;SDS011;34713;50.038;20.000;2023-06-10T07:27:42;5.80;;;5.10;;
48897;SDS011;34713;50.038;20.000;2023-06-10T07:30:09;7.30;;;4.70;;
48897;SDS011;34713;50.038;20.000;2023-06-10T07:32:39;7.30;;;5.20;;
48897;SDS011;34713;50.038;20.000;2023-06-10T07:35:07;7.50;;;5.60;;
48897;SDS011;34713;50.038;20.000;2023-06-10T07:37:40;8.00;;;5.50;;
48897;SDS011;34713;50.038;20.000;2023-06-10T07:40:10;7.10;;;4.80;;
48897;SDS011;34713;50.038;20.000;2023-06-10T07:42:48;7.20;;;4.80;;
48897;SDS011;34713;50.038;20.000;2023-06-10T07:45:21;5.60;;;4.80;;
48897;SDS011;34713;50.038;20.000;2023-06-10T07:50:54;6.50;;;5.10;;
48897;SDS011;34713;50.038;20.000;2023-06-10T07:53:27;7.10;;;4.60;;
48897;SDS011;34713;50.038;20.000;2023-06-10T07:56:02;6.30;;;4.70;;
48897;SDS011;34713;50.038;20.000;2023-06-10T07:58:29;10.50;;;5.10;;
48897;SDS011;34713;50.038;20.000;2023-06-10T08:00:56;7.00;;;5.00;;
48897;SDS011;34713;50.038;20.000;2023-06-10T08:03:30;5.40;;;4.90;;
48897;SDS011;34713;50.038;20.000;2023-06-10T08:05:57;5.50;;;4.90;;
48897;SDS011;34713;50.038;20.000;2023-06-10T08:08:23;6.40;;;5.00;;
48897;SDS011;34713;50.038;20.000;2023-06-10T08:10:50;5.20;;;4.80;;
48897;SDS011;34713;50.038;20.000;2023-06-10T08:13:20;6.00;;;4.70;;
48897;SDS011;34713;50.038;20.000;2023-06-10T08:16:07;5.50;;;4.50;;
48897;SDS011;34713;50.038;20.000;2023-06-10T08:18:37;6.50;;;4.90;;
48897;SDS011;34713;50.038;20.000;2023-06-10T08:21:31;6.00;;;4.30;;
48897;SDS011;34713;50.038;20.000;2023-06-10T08:24:06;5.90;;;4.70;;
48897;SDS011;34713;50.038;20.000;2023-06-10T08:26:54;7.60;;;4.80;;
48897;SDS011;34713;50.038;20.000;2023-06-10T08:29:31;7.80;;;4.70;;
48897;SDS011;34713;50.038;20.000;2023-06-10T08:31:58;6.00;;;4.80;;
48897;SDS011;34713;50.038;20.000;2023-06-10T08:40:48;5.90;;;4.50;;
48897;SDS011;34713;50.038;20.000;2023-06-10T08:46:31;6.10;;;4.60;;
48897;SDS011;34713;50.038;20.000;2023-06-10T08:49:05;7.10;;;4.50;;
48897;SDS011;34713;50.038;20.000;2023-06-10T08:51:58;9.20;;;4.70;;
48897;SDS011;34713;50.038;20.000;2023-06-10T08:54:34;5.00;;;4.40;;
48897;SDS011;34713;50.038;20.000;2023-06-10T08:57:12;5.00;;;4.00;;
48897;SDS011;34713;50.038;20.000;2023-06-10T08:59:53;5.60;;;4.50;;
48897;SDS011;34713;50.038;20.000;2023-06-10T09:02:45;4.60;;;3.90;;
48897;SDS011;34713;50.038;20.000;2023-06-10T09:05:18;5.70;;;4.80;;
48897;SDS011;34713;50.038;20.000;2023-06-10T09:07:57;6.50;;;4.30;;
48897;SDS011;34713;50.038;20.000;2023-06-10T09:10:24;5.40;;;4.80;;
48897;SDS011;34713;50.038;20.000;2023-06-10T09:15:44;6.50;;;4.00;;
48897;SDS011;34713;50.038;20.000;2023-06-10T09:18:31;5.00;;;4.10;;
48897;SDS011;34713;50.038;20.000;2023-06-10T09:20:58;6.00;;;3.70;;
48897;SDS011;34713;50.038;20.000;2023-06-10T09:23:25;5.00;;;3.70;;
48897;SDS011;34713;50.038;20.000;2023-06-10T09:25:56;5.00;;;4.10;;
48897;SDS011;34713;50.038;20.000;2023-06-10T09:31:30;4.40;;;4.00;;
48897;SDS011;34713;50.038;20.000;2023-06-10T09:34:12;5.80;;;3.80;;
48897;SDS011;34713;50.038;20.000;2023-06-10T09:37:22;4.60;;;3.80;;
48897;SDS011;34713;50.038;20.000;2023-06-10T09:40:11;6.30;;;4.10;;
48897;SDS011;34713;50.038;20.000;2023-06-10T09:42:42;8.30;;;4.60;;
48897;SDS011;34713;50.038;20.000;2023-06-10T09:45:23;7.80;;;5.50;;
48897;SDS011;34713;50.038;20.000;2023-06-10T09:48:29;5.80;;;4.80;;
48897;SDS011;34713;50.038;20.000;2023-06-10T09:50:58;5.80;;;4.20;;
48897;SDS011;34713;50.038;20.000;2023-06-10T09:53:38;5.50;;;4.00;;
48897;SDS011;34713;50.038;20.000;2023-06-10T09:56:35;6.40;;;3.90;;
48897;SDS011;34713;50.038;20.000;2023-06-10T09:59:27;6.00;;;4.20;;
48897;SDS011;34713;50.038;20.000;2023-06-10T10:02:04;4.60;;;3.80;;
48897;SDS011;34713;50.038;20.000;2023-06-10T10:04:43;5.80;;;3.90;;
48897;SDS011;34713;50.038;20.000;2023-06-10T10:07:13;5.00;;;4.00;;
48897;SDS011;34713;50.038;20.000;2023-06-10T10:09:43;5.80;;;4.10;;
48897;SDS011;34713;50.038;20.000;2023-06-10T10:12:11;4.30;;;3.40;;
48897;SDS011;34713;50.038;20.000;2023-06-10T10:14:47;4.90;;;3.40;;
48897;SDS011;34713;50.038;20.000;2023-06-10T10:17:24;6.50;;;3.60;;
48897;SDS011;34713;50.038;20.000;2023-06-10T10:20:03;6.90;;;3.10;;
48897;SDS011;34713;50.038;20.000;2023-06-10T10:22:40;4.10;;;3.20;;
48897;SDS011;34713;50.038;20.000;2023-06-10T10:25:11;5.40;;;3.40;;
48897;SDS011;34713;50.038;20.000;2023-06-10T10:27:51;4.10;;;3.30;;
48897;SDS011;34713;50.038;20.000;2023-06-10T10:30:40;4.50;;;3.60;;
48897;SDS011;34713;50.038;20.000;2023-06-10T10:35:58;5.80;;;3.90;;
48897;SDS011;34713;50.038;20.000;2023-06-10T10:38:29;6.70;;;3.50;;
48897;SDS011;34713;50.038;20.000;2023-06-10T10:40:57;5.50;;;3.70;;
48897;SDS011;34713;50.038;20.000;2023-06-10T10:43:27;5.30;;;3.40;;
48897;SDS011;34713;50.038;20.000;2023-06-10T10:46:00;6.20;;;3.60;;
48897;SDS011;34713;50.038;20.000;2023-06-10T10:48:38;5.30;;;3.50;;
48897;SDS011;34713;50.038;20.000;2023-06-10T10:51:05;5.60;;;3.40;;
48897;SDS011;34713;50.038;20.000;2023-06-10T10:53:32;5.20;;;3.60;;
48897;SDS011;34713;50.038;20.000;2023-06-10T10:58:34;4.90;;;3.70;;
48897;SDS011;34713;50.038;20.000;2023-06-10T11:01:10;5.50;;;3.40;;
48897;SDS011;34713;50.038;20.000;2023-06-10T11:03:44;7.70;;;3.80;;
48897;SDS011;34713;50.038;20.000;2023-06-10T11:06:14;5.30;;;3.20;;
48897;SDS011;34713;50.038;20.000;2023-06-10T11:11:21;6.30;;;3.30;;
48897;SDS011;34713;50.038;20.000;2023-06-10T11:19:07;7.30;;;3.50;;
48897;SDS011;34713;50.038;20.000;2023-06-10T11:22:20;5.00;;;3.40;;
48897;SDS011;34713;50.038;20.000;2023-06-10T11:24:53;4.20;;;3.60;;
48897;SDS011;34713;50.038;20.000;2023-06-10T11:27:55;4.30;;;3.80;;
48897;SDS011;34713;50.038;20.000;2023-06-10T11:30:31;5.90;;;4.00;;
48897;SDS011;34713;50.038;20.000;2023-06-10T11:33:06;5.60;;;3.90;;
48897;SDS011;34713;50.038;20.000;2023-06-10T11:42:53;5.30;;;4.80;;
48897;SDS011;34713;50.038;20.000;2023-06-10T11:45:53;6.40;;;4.30;;
48897;SDS011;34713;50.038;20.000;2023-06-10T11:55:03;4.70;;;3.50;;
48897;SDS011;34713;50.038;20.000;2023-06-10T11:57:33;5.00;;;2.80;;
48897;SDS011;34713;50.038;20.000;2023-06-10T12:00:07;5.70;;;3.50;;
48897;SDS011;34713;50.038;20.000;2023-06-10T12:02:41;4.00;;;3.20;;
48897;SDS011;34713;50.038;20.000;2023-06-10T12:05:15;4.60;;;3.40;;
48897;SDS011;34713;50.038;20.000;2023-06-10T12:07:45;4.00;;;3.00;;
48897;SDS011;34713;50.038;20.000;2023-06-10T12:10:12;3.60;;;2.80;;
48897;SDS011;34713;50.038;20.000;2023-06-10T12:12:38;3.60;;;2.50;;
48897;SDS011;34713;50.038;20.000;2023-06-10T12:15:07;3.60;;;2.70;;
48897;SDS011;34713;50.038;20.000;2023-06-10T12:18:04;5.60;;;2.90;;
48897;SDS011;34713;50.038;20.000;2023-06-10T12:20:31;4.00;;;2.50;;
48897;SDS011;34713;50.038;20.000;2023-06-10T12:23:07;4.50;;;2.80;;
48897;SDS011;34713;50.038;20.000;2023-06-10T12:25:35;6.10;;;2.70;;
48897;SDS011;34713;50.038;20.000;2023-06-10T12:28:09;4.60;;;2.70;;
48897;SDS011;34713;50.038;20.000;2023-06-10T12:30:39;3.50;;;2.70;;
48897;SDS011;34713;50.038;20.000;2023-06-10T12:33:15;5.50;;;2.40;;
48897;SDS011;34713;50.038;20.000;2023-06-10T12:35:50;5.50;;;2.60;;
48897;SDS011;34713;50.038;20.000;2023-06-10T12:38:21;2.60;;;2.20;;
48897;SDS011;34713;50.038;20.000;2023-06-10T12:40:53;2.50;;;2.30;;
48897;SDS011;34713;50.038;20.000;2023-06-10T12:43:20;4.20;;;2.60;;
48897;SDS011;34713;50.038;20.000;2023-06-10T12:46:19;3.20;;;2.60;;
48897;SDS011;34713;50.038;20.000;2023-06-10T12:48:51;3.90;;;2.20;;
48897;SDS011;34713;50.038;20.000;2023-06-10T12:51:21;3.10;;;2.00;;
48897;SDS011;34713;50.038;20.000;2023-06-10T12:54:01;6.00;;;2.20;;
48897;SDS011;34713;50.038;20.000;2023-06-10T12:56:28;4.40;;;2.00;;
48897;SDS011;34713;50.038;20.000;2023-06-10T12:59:36;4.20;;;2.10;;
48897;SDS011;34713;50.038;20.000;2023-06-10T13:02:03;3.00;;;2.40;;
48897;SDS011;34713;50.038;20.000;2023-06-10T13:04:30;4.70;;;2.60;;
48897;SDS011;34713;50.038;20.000;2023-06-10T13:06:57;5.10;;;2.70;;
48897;SDS011;34713;50.038;20.000;2023-06-10T13:09:27;2.80;;;2.40;;
48897;SDS011;34713;50.038;20.000;2023-06-10T13:12:14;6.00;;;2.50;;
48897;SDS011;34713;50.038;20.000;2023-06-10T13:14:43;2.40;;;2.20;;
48897;SDS011;34713;50.038;20.000;2023-06-10T13:17:31;3.10;;;2.30;;
48897;SDS011;34713;50.038;20.000;2023-06-10T13:20:04;3.90;;;2.60;;
48897;SDS011;34713;50.038;20.000;2023-06-10T13:22:35;4.70;;;2.50;;
48897;SDS011;34713;50.038;20.000;2023-06-10T13:25:03;3.20;;;2.10;;
48897;SDS011;34713;50.038;20.000;2023-06-10T13:27:31;2.90;;;2.20;;
48897;SDS011;34713;50.038;20.000;2023-06-10T13:30:01;2.30;;;2.10;;
48897;SDS011;34713;50.038;20.000;2023-06-10T13:32:57;3.10;;;2.20;;
48897;SDS011;34713;50.038;20.000;2023-06-10T13:35:49;4.10;;;2.50;;
48897;SDS011;34713;50.038;20.000;2023-06-10T13:41:56;4.10;;;2.10;;
48897;SDS011;34713;50.038;20.000;2023-06-10T13:44:23;3.70;;;2.50;;
48897;SDS011;34713;50.038;20.000;2023-06-10T13:46:53;3.00;;;2.10;;
48897;SDS011;34713;50.038;20.000;2023-06-10T13:49:20;3.60;;;2.20;;
48897;SDS011;34713;50.038;20.000;2023-06-10T13:51:50;3.50;;;2.20;;
48897;SDS011;34713;50.038;20.000;2023-06-10T13:54:19;2.70;;;1.80;;
48897;SDS011;34713;50.038;20.000;2023-06-10T13:56:47;2.20;;;1.80;;
48897;SDS011;34713;50.038;20.000;2023-06-10T13:59:14;2.40;;;1.80;;
48897;SDS011;34713;50.038;20.000;2023-06-10T14:01:40;2.90;;;2.20;;
48897;SDS011;34713;50.038;20.000;2023-06-10T14:04:10;2.60;;;2.20;;
48897;SDS011;34713;50.038;20.000;2023-06-10T14:06:37;3.50;;;2.00;;
48897;SDS011;34713;50.038;20.000;2023-06-10T14:09:03;3.10;;;2.20;;
48897;SDS011;34713;50.038;20.000;2023-06-10T14:11:31;3.90;;;2.10;;
48897;SDS011;34713;50.038;20.000;2023-06-10T14:14:00;4.50;;;2.10;;
48897;SDS011;34713;50.038;20.000;2023-06-10T14:16:27;3.50;;;2.00;;
48897;SDS011;34713;50.038;20.000;2023-06-10T14:18:54;2.70;;;2.20;;
48897;SDS011;34713;50.038;20.000;2023-06-10T14:21:21;5.90;;;2.10;;
48897;SDS011;34713;50.038;20.000;2023-06-10T14:23:48;3.40;;;2.20;;
48897;SDS011;34713;50.038;20.000;2023-06-10T14:26:16;3.80;;;2.20;;
48897;SDS011;34713;50.038;20.000;2023-06-10T14:28:49;3.60;;;2.30;;
48897;SDS011;34713;50.038;20.000;2023-06-10T14:31:16;5.10;;;2.00;;
48897;SDS011;34713;50.038;20.000;2023-06-10T14:33:43;6.00;;;2.10;;
48897;SDS011;34713;50.038;20.000;2023-06-10T14:36:10;3.50;;;2.00;;
48897;SDS011;34713;50.038;20.000;2023-06-10T14:38:37;4.20;;;2.60;;
48897;SDS011;34713;50.038;20.000;2023-06-10T14:41:04;3.80;;;2.30;;
48897;SDS011;34713;50.038;20.000;2023-06-10T14:43:31;5.00;;;2.00;;
48897;SDS011;34713;50.038;20.000;2023-06-10T14:46:09;2.60;;;2.30;;
48897;SDS011;34713;50.038;20.000;2023-06-10T14:48:47;3.10;;;1.80;;
48897;SDS011;34713;50.038;20.000;2023-06-10T14:51:13;2.30;;;1.80;;
48897;SDS011;34713;50.038;20.000;2023-06-10T14:54:06;3.50;;;1.70;;
48897;SDS011;34713;50.038;20.000;2023-06-10T14:56:41;4.50;;;1.90;;
48897;SDS011;34713;50.038;20.000;2023-06-10T14:59:08;4.10;;;1.80;;
48897;SDS011;34713;50.038;20.000;2023-06-10T15:01:35;6.70;;;2.50;;
48897;SDS011;34713;50.038;20.000;2023-06-10T15:04:04;2.80;;;1.90;;
48897;SDS011;34713;50.038;20.000;2023-06-10T15:06:31;2.80;;;1.90;;
48897;SDS011;34713;50.038;20.000;2023-06-10T15:09:00;3.30;;;2.10;;
48897;SDS011;34713;50.038;20.000;2023-06-10T15:11:33;6.90;;;2.20;;
48897;SDS011;34713;50.038;20.000;2023-06-10T15:14:00;2.70;;;2.20;;
48897;SDS011;34713;50.038;20.000;2023-06-10T15:16:27;2.60;;;2.10;;
48897;SDS011;34713;50.038;20.000;2023-06-10T15:18:56;5.30;;;2.00;;
48897;SDS011;34713;50.038;20.000;2023-06-10T15:24:30;2.70;;;1.80;;
48897;SDS011;34713;50.038;20.000;2023-06-10T15:26:56;3.50;;;1.90;;
48897;SDS011;34713;50.038;20.000;2023-06-10T15:29:33;3.20;;;2.00;;
48897;SDS011;34713;50.038;20.000;2023-06-10T15:31:59;4.20;;;1.80;;
48897;SDS011;34713;50.038;20.000;2023-06-10T15:34:26;3.40;;;2.30;;
48897;SDS011;34713;50.038;20.000;2023-06-10T15:36:53;2.60;;;1.60;;
48897;SDS011;34713;50.038;20.000;2023-06-10T15:39:20;3.50;;;2.00;;
48897;SDS011;34713;50.038;20.000;2023-06-10T15:41:47;4.30;;;2.10;;
48897;SDS011;34713;50.038;20.000;2023-06-10T15:44:14;4.70;;;2.40;;
48897;SDS011;34713;50.038;20.000;2023-06-10T15:46:40;5.40;;;2.20;;
48897;SDS011;34713;50.038;20.000;2023-06-10T15:49:07;2.70;;;2.00;;
48897;SDS011;34713;50.038;20.000;2023-06-10T15:51:37;3.60;;;2.10;;
48897;SDS011;34713;50.038;20.000;2023-06-10T15:54:03;2.90;;;1.90;;
48897;SDS011;34713;50.038;20.000;2023-06-10T15:56:33;3.10;;;1.90;;
48897;SDS011;34713;50.038;20.000;2023-06-10T15:59:00;3.20;;;2.20;;
48897;SDS011;34713;50.038;20.000;2023-06-10T16:01:27;3.90;;;2.10;;
48897;SDS011;34713;50.038;20.000;2023-06-10T16:03:54;3.50;;;2.10;;
48897;SDS011;34713;50.038;20.000;2023-06-10T16:06:20;3.50;;;2.20;;
48897;SDS011;34713;50.038;20.000;2023-06-10T16:08:49;3.10;;;2.30;;
48897;SDS011;34713;50.038;20.000;2023-06-10T16:11:17;4.60;;;2.40;;
48897;SDS011;34713;50.038;20.000;2023-06-10T16:13:44;8.80;;;2.40;;
48897;SDS011;34713;50.038;20.000;2023-06-10T16:16:10;3.00;;;2.30;;
48897;SDS011;34713;50.038;20.000;2023-06-10T16:18:40;6.40;;;2.40;;
48897;SDS011;34713;50.038;20.000;2023-06-10T16:21:07;4.30;;;2.50;;
48897;SDS011;34713;50.038;20.000;2023-06-10T16:23:33;3.80;;;2.40;;
48897;SDS011;34713;50.038;20.000;2023-06-10T16:26:00;4.50;;;2.30;;
48897;SDS011;34713;50.038;20.000;2023-06-10T16:28:30;3.40;;;2.30;;
48897;SDS011;34713;50.038;20.000;2023-06-10T16:30:56;3.20;;;2.10;;
48897;SDS011;34713;50.038;20.000;2023-06-10T16:33:26;4.40;;;2.60;;
48897;SDS011;34713;50.038;20.000;2023-06-10T16:35:53;3.40;;;2.70;;
48897;SDS011;34713;50.038;20.000;2023-06-10T16:38:23;5.20;;;2.60;;
48897;SDS011;34713;50.038;20.000;2023-06-10T16:40:52;3.00;;;2.40;;
48897;SDS011;34713;50.038;20.000;2023-06-10T16:43:19;5.50;;;2.40;;
48897;SDS011;34713;50.038;20.000;2023-06-10T16:45:46;3.80;;;2.70;;
48897;SDS011;34713;50.038;20.000;2023-06-10T16:48:13;3.80;;;2.50;;
48897;SDS011;34713;50.038;20.000;2023-06-10T16:50:40;6.70;;;2.80;;